Time;durP1;ratioP1;P1;durP2;ratioP2;P2;SDS_P1;SDS_P2;PMS_P1;PMS_P2;Temp;Humidity;BMP_temperature;BMP_pressure;BME280_temperature;BME280_humidity;BME280_pressure;Samples;Min_cycle;Max_cycle;Signal;HPM_P1;HPM_P2
2022/01/07 16:14:11;;;;;;;;;;;19.20;52.00;;;;;;3888210;22;19930;-89
2022/01/07 16:15:45;;;;;;;;;;;19.20;52.10;;;;;;3896477;22;20310;-89
2022/01/07 16:17:16;;;;;;;;;;;19.20;52.10;;;;;;3888013;22;20306;-89
2022/01/07 16:18:50;;;;;;;;;;;19.20;52.00;;;;;;3878815;22;19920;-94
2022/01/07 16:20:23;;;;;;;;;;;19.20;51.90;;;;;;3879489;22;19920;-91
2022/01/07 16:21:54;;;;;;;;;;;19.20;52.20;;;;;;3875847;22;19927;-91
2022/01/07 16:23:26;;;;;;;;;;;19.20;52.00;;;;;;3876236;22;19920;-91
2022/01/07 16:24:58;;;;;;;;;;;19.20;51.90;;;;;;3876565;22;19949;-88
2022/01/07 16:26:30;;;;;;;;;;;19.20;51.80;;;;;;3876085;22;19919;-90
2022/01/07 16:28:02;;;;;;;;;;;19.20;51.80;;;;;;3875485;22;19941;-91
2022/01/07 16:29:35;;;;;;;;;;;19.20;52.20;;;;;;3876338;22;19919;-90
2022/01/07 16:31:06;;;;;;;;;;;19.20;52.10;;;;;;3875125;22;19990;-90
2022/01/07 16:32:39;;;;;;;;;;;19.20;52.10;;;;;;3877022;22;19930;-92
2022/01/07 16:34:11;;;;;;;;;;;19.20;52.10;;;;;;3876334;22;19919;-93
2022/01/07 16:35:44;;;;;;;;;;;19.20;52.40;;;;;;3878965;22;19924;-91
2022/01/07 16:37:15;;;;;;;;;;;19.20;52.70;;;;;;3875678;22;19920;-87
2022/01/07 16:38:47;;;;;;;;;;;19.20;52.70;;;;;;3876075;22;19951;-89
2022/01/07 16:40:19;;;;;;;;;;;19.20;52.90;;;;;;3876805;22;19920;-89
2022/01/07 16:41:51;;;;;;;;;;;19.20;53.00;;;;;;3875481;22;19919;-90
2022/01/07 16:43:24;;;;;;;;;;;19.20;53.00;;;;;;3875729;22;19989;-90
2022/01/07 16:45:00;;;;;;;;;;;19.20;53.00;;;;;;3879483;22;19919;-92
2022/01/07 16:46:32;;;;;;;;;;;19.20;53.00;;;;;;3874215;22;20342;-92
2022/01/07 16:48:04;;;;;;;;;;;19.20;53.90;;;;;;3876623;22;19919;-90
2022/01/07 16:49:38;;;;;;;;;;;19.20;53.70;;;;;;3876448;22;19919;-90
2022/01/07 16:51:09;;;;;;;;;;;19.20;53.60;;;;;;3877124;22;19943;-88
2022/01/07 16:52:41;;;;;;;;;;;19.20;53.60;;;;;;3876309;22;19923;-90
2022/01/07 16:54:13;;;;;;;;;;;19.20;53.50;;;;;;3877196;22;19919;-90
2022/01/07 16:55:44;;;;;;;;;;;19.20;53.40;;;;;;3876105;22;19927;-89
2022/01/07 16:57:16;;;;;;;;;;;19.20;53.40;;;;;;3875870;22;19919;-89
2022/01/07 16:58:48;;;;;;;;;;;19.20;53.60;;;;;;3876988;22;20289;-89
2022/01/07 17:00:21;;;;;;;;;;;19.20;53.60;;;;;;3875055;22;19990;-90
2022/01/07 17:01:52;;;;;;;;;;;19.20;53.60;;;;;;3875818;22;20011;-89
2022/01/07 17:03:24;;;;;;;;;;;19.20;53.60;;;;;;3876518;22;19935;-90
2022/01/07 17:04:55;;;;;;;;;;;19.20;53.70;;;;;;3876933;22;19985;-89
2022/01/07 17:06:27;;;;;;;;;;;19.20;53.70;;;;;;3875838;22;19941;-89
2022/01/07 17:07:59;;;;;;;;;;;19.20;53.90;;;;;;3876333;22;20235;-90
2022/01/07 17:09:30;;;;;;;;;;;19.20;53.90;;;;;;3878679;22;20255;-89
2022/01/07 17:11:03;;;;;;;;;;;19.20;53.90;;;;;;3877251;22;19920;-89
2022/01/07 17:12:35;;;;;;;;;;;19.20;53.90;;;;;;3876009;22;19983;-88
2022/01/07 17:14:08;;;;;;;;;;;19.20;54.00;;;;;;3893471;22;20330;-87
2022/01/07 17:15:41;;;;;;;;;;;19.30;53.90;;;;;;3865288;22;19924;-90
2022/01/07 17:17:14;;;;;;;;;;;19.20;54.00;;;;;;3817221;23;19927;-89
2022/01/07 17:18:46;;;;;;;;;;;19.20;54.00;;;;;;3819049;23;19921;-89
2022/01/07 17:20:20;;;;;;;;;;;19.20;54.10;;;;;;3818684;23;19920;-89
2022/01/07 17:21:51;;;;;;;;;;;19.30;54.20;;;;;;3817452;23;19928;-89
2022/01/07 17:23:26;;;;;;;;;;;19.20;54.20;;;;;;3818765;23;19921;-89
2022/01/07 17:24:58;;;;;;;;;;;19.20;54.10;;;;;;3818180;23;19927;-90
2022/01/07 17:26:30;;;;;;;;;;;19.20;54.10;;;;;;3818023;23;19986;-90
2022/01/07 17:28:02;;;;;;;;;;;19.20;54.30;;;;;;3818305;23;19921;-89
2022/01/07 17:29:34;;;;;;;;;;;19.20;54.20;;;;;;3818861;23;19931;-89
2022/01/07 17:31:07;;;;;;;;;;;19.20;54.10;;;;;;3817042;23;19927;-91
2022/01/07 17:32:39;;;;;;;;;;;19.20;54.10;;;;;;3817856;23;20301;-91
2022/01/07 17:34:10;;;;;;;;;;;19.20;54.10;;;;;;3818556;23;20004;-91
2022/01/07 17:35:42;;;;;;;;;;;19.20;54.10;;;;;;3818479;23;19920;-92
2022/01/07 17:37:14;;;;;;;;;;;19.20;54.20;;;;;;3817514;23;19925;-92
2022/01/07 17:38:45;;;;;;;;;;;19.20;54.10;;;;;;3818619;23;20414;-93
2022/01/07 17:40:19;;;;;;;;;;;19.20;54.20;;;;;;3818280;23;20347;-90
2022/01/07 17:41:51;;;;;;;;;;;19.20;54.40;;;;;;3817892;23;19921;-92
2022/01/07 17:43:23;;;;;;;;;;;19.20;54.40;;;;;;3818690;23;20377;-91
2022/01/07 17:44:55;;;;;;;;;;;19.20;55.00;;;;;;3818508;23;19974;-90
2022/01/07 21:37:49;;;;;;;;;;;18.70;53.70;;;;;;3819624;23;19947;-87
2022/01/07 21:39:22;;;;;;;;;;;18.60;54.10;;;;;;3816465;23;19921;-86
2022/01/07 21:40:53;;;;;;;;;;;18.60;53.80;;;;;;3816284;22;19947;-87
2022/01/07 21:42:28;;;;;;;;;;;18.60;53.80;;;;;;3817372;22;19966;-86
2022/01/07 21:44:00;;;;;;;;;;;18.60;53.70;;;;;;3817217;22;19921;-88
2022/01/07 21:45:32;;;;;;;;;;;18.60;53.70;;;;;;3840431;22;19922;-87
2022/01/07 21:47:04;;;;;;;;;;;18.70;53.70;;;;;;3894125;22;19947;-88
2022/01/07 21:48:35;;;;;;;;;;;18.60;53.70;;;;;;3895727;22;20394;-86
2022/01/07 21:50:09;;;;;;;;;;;18.60;53.70;;;;;;3895465;22;19973;-88
2022/01/07 21:51:41;;;;;;;;;;;18.60;53.70;;;;;;3895335;22;19926;-88
2022/01/07 21:53:13;;;;;;;;;;;18.60;53.60;;;;;;3895640;22;19924;-88
2022/01/07 21:54:46;;;;;;;;;;;18.60;53.70;;;;;;3896191;22;19933;-87
2022/01/07 21:56:17;;;;;;;;;;;18.60;53.70;;;;;;3895866;22;19945;-88
2022/01/07 21:57:49;;;;;;;;;;;18.60;53.60;;;;;;3894733;22;19919;-88
2022/01/07 21:59:21;;;;;;;;;;;18.60;53.60;;;;;;3895286;22;19923;-87
2022/01/07 22:00:52;;;;;;;;;;;18.60;53.70;;;;;;3895456;22;19919;-88
2022/01/07 22:02:24;;;;;;;;;;;18.60;53.70;;;;;;3895288;22;19919;-88
2022/01/07 22:03:56;;;;;;;;;;;18.60;53.60;;;;;;3895857;22;19919;-87
2022/01/07 22:05:28;;;;;;;;;;;18.60;53.70;;;;;;3895700;22;19920;-87
2022/01/07 22:07:00;;;;;;;;;;;18.60;53.60;;;;;;3895757;22;19969;-88
2022/01/07 22:08:32;;;;;;;;;;;18.60;53.60;;;;;;3895396;22;19919;-88
2022/01/07 22:10:05;;;;;;;;;;;18.60;53.70;;;;;;3896343;22;19919;-88
2022/01/07 22:11:37;;;;;;;;;;;18.60;53.60;;;;;;3895436;22;19919;-87
2022/01/07 22:13:09;;;;;;;;;;;18.50;53.60;;;;;;3895395;22;20360;-87
2022/01/07 22:14:41;;;;;;;;;;;18.60;53.70;;;;;;3896807;22;19919;-88
2022/01/07 22:16:12;;;;;;;;;;;18.50;53.60;;;;;;3896070;22;19925;-87
2022/01/07 22:17:44;;;;;;;;;;;18.60;53.60;;;;;;3896723;22;20238;-87
2022/01/07 22:19:16;;;;;;;;;;;18.60;53.70;;;;;;3896648;22;19941;-88
2022/01/07 22:20:47;;;;;;;;;;;18.60;53.70;;;;;;3897344;22;19923;-87
2022/01/07 22:22:19;;;;;;;;;;;18.50;53.70;;;;;;3896204;22;20459;-88
2022/01/07 22:23:51;;;;;;;;;;;18.50;53.60;;;;;;3896689;22;19919;-88
2022/01/07 22:25:24;;;;;;;;;;;18.50;53.60;;;;;;3897505;22;19919;-87
2022/01/07 22:26:56;;;;;;;;;;;18.50;53.60;;;;;;3896240;22;19926;-88
2022/01/07 22:28:28;;;;;;;;;;;18.50;53.60;;;;;;3897153;22;19930;-87
2022/01/07 22:29:59;;;;;;;;;;;18.50;53.60;;;;;;3896789;22;19919;-87
2022/01/07 22:31:31;;;;;;;;;;;18.50;53.70;;;;;;3896054;22;19968;-87
2022/01/07 22:33:03;;;;;;;;;;;18.50;53.60;;;;;;3896668;22;19926;-88
2022/01/07 22:34:34;;;;;;;;;;;18.50;53.70;;;;;;3897370;22;19929;-88
2022/01/07 22:36:06;;;;;;;;;;;18.50;53.70;;;;;;3897933;22;19941;-87
2022/01/07 22:37:38;;;;;;;;;;;18.50;53.60;;;;;;3896089;22;20369;-89
2022/01/07 22:39:09;;;;;;;;;;;18.50;53.60;;;;;;3898091;22;19993;-88
2022/01/07 22:40:42;;;;;;;;;;;18.50;53.80;;;;;;3896475;22;19919;-88
2022/01/07 22:42:14;;;;;;;;;;;18.50;53.70;;;;;;3897776;22;20270;-89
2022/01/07 22:43:46;;;;;;;;;;;18.40;53.60;;;;;;3898222;22;20188;-88
2022/01/07 22:45:19;;;;;;;;;;;18.50;53.70;;;;;;3894917;22;19919;-88
2022/01/07 22:46:51;;;;;;;;;;;18.40;53.60;;;;;;3896540;22;19929;-88
2022/01/07 22:48:23;;;;;;;;;;;18.40;53.60;;;;;;3896106;22;19919;-87
2022/01/07 22:49:54;;;;;;;;;;;18.40;53.60;;;;;;3896802;22;19926;-87
2022/01/07 22:51:26;;;;;;;;;;;18.40;53.60;;;;;;3896840;22;19923;-88
2022/01/07 22:52:58;;;;;;;;;;;18.40;53.70;;;;;;3895116;22;19966;-87
2022/01/07 22:54:29;;;;;;;;;;;18.40;53.60;;;;;;3896707;22;19923;-88
2022/01/07 22:56:02;;;;;;;;;;;18.40;53.70;;;;;;3896696;22;19919;-88
2022/01/07 22:57:34;;;;;;;;;;;18.40;53.70;;;;;;3895785;22;19919;-88
2022/01/07 22:59:06;;;;;;;;;;;18.40;53.60;;;;;;3896974;22;20292;-87
2022/01/07 23:00:37;;;;;;;;;;;18.40;53.60;;;;;;3895350;22;19924;-88
2022/01/07 23:02:09;;;;;;;;;;;18.40;53.70;;;;;;3895941;22;19976;-88
2022/01/07 23:03:41;;;;;;;;;;;18.40;53.80;;;;;;3895759;22;19990;-88
2022/01/07 23:05:12;;;;;;;;;;;18.40;53.70;;;;;;3897474;22;19946;-88
2022/01/07 23:06:47;;;;;;;;;;;18.40;53.60;;;;;;3896019;22;19923;-88
2022/01/07 23:08:18;;;;;;;;;;;18.40;53.60;;;;;;3895372;22;19984;-88
2022/01/07 23:09:50;;;;;;;;;;;18.40;53.70;;;;;;3895828;22;19965;-88
2022/01/07 23:11:23;;;;;;;;;;;18.40;53.60;;;;;;3896152;22;20330;-87
2022/01/07 23:12:55;;;;;;;;;;;18.40;53.70;;;;;;3894348;22;19988;-87
2022/01/07 23:14:27;;;;;;;;;;;18.40;53.60;;;;;;3895726;22;19930;-86
2022/01/07 23:15:59;;;;;;;;;;;18.40;53.60;;;;;;3893957;22;19919;-86
2022/01/07 23:17:30;;;;;;;;;;;18.40;53.70;;;;;;3894649;22;19934;-87
2022/01/07 23:19:02;;;;;;;;;;;18.40;53.60;;;;;;3895140;22;19920;-87
2022/01/07 23:20:34;;;;;;;;;;;18.40;53.70;;;;;;3895636;22;19923;-87
2022/01/07 23:22:05;;;;;;;;;;;18.40;53.60;;;;;;3894959;22;19919;-87
2022/01/07 23:23:37;;;;;;;;;;;18.40;53.70;;;;;;3895479;22;19927;-86
2022/01/07 23:25:09;;;;;;;;;;;18.40;53.60;;;;;;3894915;22;19973;-87
2022/01/07 23:26:42;;;;;;;;;;;18.40;53.80;;;;;;3894771;22;20258;-87
2022/01/07 23:28:13;;;;;;;;;;;18.30;53.70;;;;;;3895188;22;19931;-87
2022/01/07 23:29:45;;;;;;;;;;;18.30;53.70;;;;;;3895492;22;19966;-87
2022/01/07 23:31:19;;;;;;;;;;;18.30;53.70;;;;;;3894104;22;19990;-87
2022/01/07 23:32:50;;;;;;;;;;;18.30;53.70;;;;;;3894681;22;20481;-87
2022/01/07 23:34:22;;;;;;;;;;;18.30;53.70;;;;;;3895440;22;19919;-88
2022/01/07 23:35:54;;;;;;;;;;;18.30;53.80;;;;;;3895448;22;19923;-87
2022/01/07 23:37:25;;;;;;;;;;;18.30;53.80;;;;;;3895008;22;20342;-87
2022/01/07 23:38:57;;;;;;;;;;;18.30;53.70;;;;;;3896040;22;19946;-86
2022/01/07 23:40:30;;;;;;;;;;;18.30;53.70;;;;;;3895663;22;19920;-87
2022/01/07 23:42:04;;;;;;;;;;;18.30;53.70;;;;;;3894551;22;19939;-87
2022/01/07 23:43:35;;;;;;;;;;;18.30;54.30;;;;;;3895236;22;19993;-87
2022/01/07 23:45:07;;;;;;;;;;;18.30;53.80;;;;;;3894454;22;19931;-86
2022/01/07 23:46:39;;;;;;;;;;;18.30;53.80;;;;;;3895756;22;19920;-86
2022/01/07 23:48:11;;;;;;;;;;;18.30;53.70;;;;;;3895246;22;19919;-87
2022/01/07 23:49:42;;;;;;;;;;;18.30;53.70;;;;;;3895529;22;19919;-88
2022/01/07 23:51:14;;;;;;;;;;;18.30;53.70;;;;;;3895189;22;20326;-87
2022/01/07 23:52:46;;;;;;;;;;;18.30;53.70;;;;;;3894698;22;20369;-87
2022/01/07 23:54:18;;;;;;;;;;;18.30;53.70;;;;;;3895505;22;19919;-87
2022/01/07 23:55:50;;;;;;;;;;;18.30;53.80;;;;;;3895237;22;19919;-87
2022/01/07 23:57:23;;;;;;;;;;;18.30;53.70;;;;;;3894405;22;19919;-88
2022/01/07 23:58:54;;;;;;;;;;;18.30;53.70;;;;;;3895435;22;19919;-87
